createdAt,value
2022-11-13T00:03:34.338Z,77.80
2022-11-13T00:07:54.659Z,81.85
2022-11-13T00:12:15.579Z,75.78
2022-11-13T00:16:35.634Z,80.38
2022-11-13T00:21:15.275Z,78.32
2022-11-13T00:25:35.777Z,72.57
2022-11-13T00:29:57.165Z,74.30
2022-11-13T00:34:45.738Z,73.28
2022-11-13T00:38:58.851Z,74.60
2022-11-13T00:43:18.956Z,70.70
2022-11-13T00:47:39.409Z,68.50
2022-11-13T00:52:00.309Z,83.15
2022-11-13T00:56:20.997Z,67.00
2022-11-13T01:00:43.059Z,61.67
2022-11-13T01:05:03.997Z,78.50
2022-11-13T01:09:24.588Z,68.63
2022-11-13T01:13:49.177Z,73.13
2022-11-13T01:18:09.960Z,63.15
2022-11-13T01:22:30.675Z,65.40
2022-11-13T01:26:51.208Z,71.10
2022-11-13T01:31:16.709Z,62.72
2022-11-13T01:35:37.188Z,61.33
2022-11-13T01:39:57.566Z,59.85
2022-11-13T01:44:19.637Z,65.03
2022-11-13T01:48:43.929Z,60.72
2022-11-13T01:53:04.952Z,58.20
2022-11-13T01:57:25.372Z,58.58
2022-11-13T02:01:45.506Z,66.47
2022-11-13T02:06:06.616Z,59.60
2022-11-13T02:10:27.099Z,60.45
2022-11-13T02:14:52.541Z,58.97
2022-11-13T02:19:19.967Z,56.85
2022-11-13T02:23:50.901Z,55.65
2022-11-13T02:28:11.062Z,55.15
2022-11-13T02:32:31.499Z,52.70
2022-11-13T02:36:51.788Z,57.40
2022-11-13T02:41:12.240Z,53.97
2022-11-13T02:45:32.296Z,56.47
2022-11-13T02:49:52.790Z,55.17
2022-11-13T02:54:16.697Z,52.45
2022-11-13T02:58:38.124Z,52.28
2022-11-13T03:02:58.366Z,54.47
2022-11-13T03:07:19.472Z,53.92
2022-11-13T03:11:39.869Z,54.70
2022-11-13T03:16:14.622Z,51.20
2022-11-13T03:20:40.456Z,51.83
2022-11-13T03:25:00.842Z,53.78
2022-11-13T03:29:22.411Z,54.20
2022-11-13T03:33:42.928Z,54.17
2022-11-13T03:38:03.213Z,53.78
2022-11-13T03:42:23.451Z,52.38
2022-11-13T03:46:43.528Z,52.53
2022-11-13T03:51:04.658Z,51.92
2022-11-13T03:55:25.008Z,52.97
2022-11-13T03:59:45.578Z,53.45
2022-11-13T04:04:05.886Z,50.25
2022-11-13T04:08:26.813Z,56.10
2022-11-13T04:12:47.281Z,53.83
2022-11-13T04:17:08.165Z,55.10
2022-11-13T04:21:28.786Z,51.70
2022-11-13T04:25:49.147Z,54.30
2022-11-13T04:30:09.783Z,58.33
2022-11-13T04:34:30.453Z,55.28
2022-11-13T04:38:50.645Z,56.15
2022-11-13T04:43:11.785Z,53.25
2022-11-13T04:47:32.155Z,55.38
2022-11-13T04:51:52.653Z,53.40
2022-11-13T04:56:12.792Z,51.75
2022-11-13T05:00:33.340Z,47.78
2022-11-13T05:04:53.389Z,48.97
2022-11-13T05:09:14.131Z,49.80
2022-11-13T05:13:36.447Z,49.30
2022-11-13T05:17:57.460Z,47.72
2022-11-13T05:22:17.759Z,47.15
2022-11-13T05:26:40.047Z,46.92
2022-11-13T05:31:26.787Z,48.03
2022-11-13T05:35:47.528Z,48.83
2022-11-13T05:40:08.190Z,48.88
2022-11-13T05:44:28.565Z,44.72
2022-11-13T05:48:53.723Z,45.58
2022-11-13T05:53:14.460Z,45.25
2022-11-13T05:57:34.552Z,45.67
2022-11-13T06:01:55.296Z,45.35
2022-11-13T06:06:18.519Z,46.35
2022-11-13T06:10:38.800Z,48.83
2022-11-13T06:14:58.683Z,48.25
2022-11-13T06:19:19.350Z,48.67
2022-11-13T06:23:40.489Z,50.17
2022-11-13T06:28:01.156Z,48.05
2022-11-13T06:32:21.880Z,48.25
2022-11-13T06:36:42.475Z,46.58
2022-11-13T06:41:04.071Z,45.72
2022-11-13T06:45:24.614Z,44.45
2022-11-13T06:49:44.775Z,45.30
2022-11-13T06:54:05.647Z,44.97
2022-11-13T06:58:26.263Z,46.45
2022-11-13T07:02:50.166Z,46.03
2022-11-13T07:07:10.694Z,49.28
2022-11-13T07:11:31.444Z,46.92
2022-11-13T07:15:51.428Z,47.65
2022-11-13T07:20:12.137Z,42.95
2022-11-13T07:24:32.316Z,43.10
2022-11-13T07:28:52.834Z,47.08
2022-11-13T07:33:13.593Z,41.58
2022-11-13T07:37:34.193Z,41.30
2022-11-13T07:41:54.353Z,42.47
2022-11-13T07:46:14.950Z,39.83
2022-11-13T07:50:37.002Z,42.22
2022-11-13T07:54:57.405Z,37.88
2022-11-13T07:59:17.803Z,38.78
2022-11-13T08:03:38.425Z,38.05
2022-11-13T08:07:58.917Z,34.80
2022-11-13T08:12:19.282Z,36.42
2022-11-13T08:16:39.479Z,36.28
2022-11-13T08:21:02.566Z,34.38
2022-11-13T08:25:23.072Z,33.83
2022-11-13T08:29:43.646Z,32.35
2022-11-13T08:34:03.710Z,30.63
2022-11-13T08:38:27.218Z,28.90
2022-11-13T08:42:47.745Z,27.35
2022-11-13T08:47:08.774Z,26.42
2022-11-13T08:51:29.165Z,24.42
2022-11-13T08:55:49.954Z,23.48
2022-11-13T09:00:11.173Z,24.30
2022-11-13T09:04:31.772Z,22.63
2022-11-13T09:08:51.783Z,21.67
2022-11-13T09:13:12.572Z,21.30
2022-11-13T09:17:32.891Z,17.58
2022-11-13T09:21:53.319Z,20.08
2022-11-13T09:26:13.402Z,17.77
2022-11-13T09:30:34.264Z,18.45
2022-11-13T09:34:54.721Z,17.73
2022-11-13T09:39:15.409Z,17.27
2022-11-13T09:43:38.613Z,15.65
2022-11-13T09:48:29.401Z,13.75
2022-11-13T09:52:51.962Z,17.83
2022-11-13T09:57:41.239Z,18.55
2022-11-13T10:02:40.069Z,18.83
2022-11-13T10:07:12.489Z,16.92
2022-11-13T10:11:45.405Z,18.25
2022-11-13T10:16:27.495Z,16.33
2022-11-13T10:20:55.756Z,15.55
2022-11-13T10:25:22.396Z,16.65
2022-11-13T10:29:48.657Z,18.80
2022-11-13T10:34:11.183Z,20.58
2022-11-13T10:38:34.742Z,21.77
2022-11-13T10:43:19.163Z,21.10
2022-11-13T10:48:03.656Z,23.58
2022-11-13T10:52:28.165Z,23.13
2022-11-13T10:57:03.711Z,22.17
2022-11-13T11:01:24.549Z,22.20
2022-11-13T11:06:02.737Z,22.48
2022-11-13T11:10:33.003Z,22.77
2022-11-13T11:15:01.747Z,22.13
2022-11-13T11:19:27.171Z,20.80
2022-11-13T11:23:56.145Z,21.83
2022-11-13T11:33:12.957Z,19.70
2022-11-13T11:37:41.167Z,17.98
2022-11-13T11:42:13.064Z,18.83
2022-11-13T11:46:33.834Z,20.05
2022-11-13T11:51:03.837Z,18.58
2022-11-13T11:55:47.446Z,176.52
2022-11-13T12:00:14.945Z,46.42
2022-11-13T12:04:43.703Z,22.63
2022-11-13T12:09:24.532Z,30.17
2022-11-13T12:13:58.191Z,18.80
2022-11-13T12:18:36.822Z,57.67
2022-11-13T12:23:14.950Z,33.13
2022-11-13T12:27:49.889Z,19.08
2022-11-13T12:32:37.771Z,18.30
2022-11-13T12:36:59.029Z,33.28
2022-11-13T12:41:41.619Z,21.20
2022-11-13T12:46:10.409Z,25.45
2022-11-13T12:50:32.900Z,29.92
2022-11-13T12:55:07.828Z,29.35
2022-11-13T12:59:38.386Z,26.05
2022-11-13T13:04:15.407Z,26.17
2022-11-13T13:09:04.163Z,25.15
2022-11-13T13:13:42.501Z,20.70
2022-11-13T13:18:06.838Z,22.67
2022-11-13T13:22:33.898Z,33.58
2022-11-13T13:26:54.852Z,28.73
2022-11-13T13:31:31.181Z,25.05
2022-11-13T13:36:22.373Z,24.02
2022-11-13T13:41:02.106Z,23.65
2022-11-13T13:45:34.379Z,23.90
2022-11-13T13:49:54.887Z,24.02
2022-11-13T13:54:19.820Z,26.55
2022-11-13T13:58:40.719Z,27.10
2022-11-13T14:03:02.850Z,26.25
2022-11-13T14:07:25.849Z,28.10
2022-11-13T14:11:47.915Z,27.90
2022-11-13T14:16:08.194Z,27.15
2022-11-13T14:20:28.583Z,29.13
2022-11-13T14:24:56.497Z,25.23
2022-11-13T14:29:34.921Z,28.57
2022-11-13T14:33:54.986Z,25.25
2022-11-13T14:38:49.024Z,25.77
2022-11-13T14:43:23.848Z,28.98
2022-11-13T14:47:44.431Z,30.35
2022-11-13T14:52:07.041Z,27.27
2022-11-13T14:56:38.223Z,27.15
2022-11-13T15:01:11.628Z,34.38
2022-11-13T15:05:33.046Z,29.05
2022-11-13T15:09:53.782Z,28.58
2022-11-13T15:14:18.513Z,27.05
2022-11-13T15:18:46.732Z,31.95
2022-11-13T15:23:11.669Z,29.08
2022-11-13T15:27:31.897Z,28.23
2022-11-13T15:31:52.118Z,25.17
2022-11-13T15:36:12.530Z,26.70
2022-11-13T15:40:32.587Z,24.75
2022-11-13T15:44:53.032Z,30.42
2022-11-13T15:49:13.047Z,29.45
2022-11-13T15:53:33.550Z,30.27
2022-11-13T15:57:55.107Z,29.45
2022-11-13T16:02:16.298Z,31.70
2022-11-13T16:06:36.784Z,36.13
2022-11-13T16:10:57.823Z,35.20
2022-11-13T16:15:18.203Z,32.33
2022-11-13T16:19:39.752Z,31.10
2022-11-13T16:23:59.882Z,31.48
2022-11-13T16:28:20.362Z,33.70
2022-11-13T16:32:40.353Z,36.25
2022-11-13T16:37:00.710Z,40.80
2022-11-13T16:41:20.951Z,43.05
2022-11-13T16:45:41.680Z,40.28
2022-11-13T16:50:02.414Z,40.50
2022-11-13T16:54:23.288Z,44.50
2022-11-13T16:58:43.789Z,44.58
2022-11-13T17:03:04.787Z,48.50
2022-11-13T17:07:25.193Z,53.25
2022-11-13T17:11:45.903Z,45.30
2022-11-13T17:16:06.067Z,47.17
2022-11-13T17:20:26.564Z,50.40
2022-11-13T17:24:46.856Z,58.70
2022-11-13T17:29:07.385Z,59.58
2022-11-13T17:33:28.118Z,57.17
2022-11-13T17:37:48.711Z,54.30
2022-11-13T17:42:09.205Z,53.70
2022-11-13T17:46:30.216Z,56.83
2022-11-13T17:50:57.850Z,62.53
2022-11-13T17:55:18.517Z,55.80
2022-11-13T17:59:38.919Z,60.55
2022-11-13T18:04:00.175Z,58.90
2022-11-13T18:08:20.461Z,61.40
2022-11-13T18:12:40.944Z,66.47
2022-11-13T18:17:00.928Z,61.42
2022-11-13T18:21:28.780Z,65.03
2022-11-13T18:25:49.239Z,77.53
2022-11-13T18:30:10.499Z,73.20
2022-11-13T18:34:31.068Z,58.60
2022-11-13T18:38:51.225Z,51.05
2022-11-13T18:43:11.400Z,55.30
2022-11-13T18:47:31.846Z,58.08
2022-11-13T18:51:52.116Z,49.65
2022-11-13T18:56:17.884Z,48.40
2022-11-13T19:00:38.377Z,42.38
2022-11-13T19:04:58.902Z,47.83
2022-11-13T19:09:19.054Z,45.00
2022-11-13T19:13:41.334Z,48.53
2022-11-13T19:18:01.547Z,43.70
2022-11-13T19:22:21.971Z,46.88
2022-11-13T19:26:43.141Z,47.60
2022-11-13T19:31:08.323Z,46.47
2022-11-13T19:35:28.852Z,48.70
2022-11-13T19:39:49.527Z,45.22
2022-11-13T19:44:09.921Z,47.92
2022-11-13T19:48:31.045Z,48.88
2022-11-13T19:52:51.421Z,50.70
2022-11-13T19:57:12.290Z,47.83
2022-11-13T20:01:32.943Z,49.15
2022-11-13T20:05:56.078Z,49.65
2022-11-13T20:10:17.379Z,47.15
2022-11-13T20:14:38.648Z,46.80
2022-11-13T20:18:59.321Z,45.05
2022-11-13T20:23:19.671Z,43.60
2022-11-13T20:27:41.861Z,40.38
2022-11-13T20:32:07.056Z,42.25
2022-11-13T20:36:27.155Z,37.28
2022-11-13T20:40:47.561Z,36.45
2022-11-13T20:45:08.417Z,53.90
2022-11-13T20:49:28.995Z,47.08
2022-11-13T20:53:49.503Z,40.25
2022-11-13T20:58:10.030Z,33.15
2022-11-13T21:02:30.135Z,32.85
2022-11-13T21:06:52.305Z,33.50
2022-11-13T21:11:18.964Z,33.13
2022-11-13T21:15:39.859Z,33.22
2022-11-13T21:20:00.033Z,34.83
2022-11-13T21:24:20.457Z,38.78
2022-11-13T21:28:41.248Z,41.55
2022-11-13T21:33:01.739Z,44.40
2022-11-13T21:37:22.109Z,43.97
2022-11-13T21:41:42.786Z,46.72
2022-11-13T21:46:04.714Z,42.03
2022-11-13T21:50:25.014Z,43.33
2022-11-13T21:54:45.114Z,41.97
2022-11-13T21:59:06.861Z,40.80
2022-11-13T22:03:28.315Z,44.50
2022-11-13T22:07:48.606Z,42.03
2022-11-13T22:12:09.952Z,42.72
2022-11-13T22:16:32.380Z,44.83
2022-11-13T22:20:52.542Z,47.83
2022-11-13T22:25:13.171Z,46.05
2022-11-13T22:29:33.480Z,45.97
2022-11-13T22:33:55.469Z,47.55
2022-11-13T22:38:16.731Z,50.13
2022-11-13T22:42:37.517Z,41.17
2022-11-13T22:46:58.240Z,39.53
2022-11-13T22:51:21.968Z,38.90
2022-11-13T22:55:41.977Z,36.65
2022-11-13T23:00:04.858Z,33.05
2022-11-13T23:04:24.968Z,35.15
2022-11-13T23:08:45.552Z,44.45
2022-11-13T23:13:05.684Z,41.90
2022-11-13T23:17:26.236Z,44.35
2022-11-13T23:21:46.705Z,34.05
2022-11-13T23:26:08.299Z,33.03
2022-11-13T23:30:28.982Z,32.08
2022-11-13T23:35:04.443Z,30.33
2022-11-13T23:39:24.353Z,29.33
2022-11-13T23:44:07.553Z,31.17
2022-11-13T23:48:25.414Z,31.13
2022-11-13T23:52:45.760Z,35.25
2022-11-13T23:57:05.891Z,31.25
